sensor_id;sensor_type;location;lat;lon;timestamp;temperature;humidity
2130;DHT22;1071;52.544;13.374;2023-09-19T00:00:20;20.80;99.90
2130;DHT22;1071;52.544;13.374;2023-09-19T00:02:52;20.80;99.90
2130;DHT22;1071;52.544;13.374;2023-09-19T00:05:24;20.80;99.90
2130;DHT22;1071;52.544;13.374;2023-09-19T00:07:58;20.80;99.90
2130;DHT22;1071;52.544;13.374;2023-09-19T00:10:26;20.80;99.90
2130;DHT22;1071;52.544;13.374;2023-09-19T00:12:58;20.80;99.90
2130;DHT22;1071;52.544;13.374;2023-09-19T00:15:26;20.80;99.90
2130;DHT22;1071;52.544;13.374;2023-09-19T00:17:56;20.80;99.90
2130;DHT22;1071;52.544;13.374;2023-09-19T00:20:23;20.80;99.90
2130;DHT22;1071;52.544;13.374;2023-09-19T00:22:50;20.80;99.90
2130;DHT22;1071;52.544;13.374;2023-09-19T00:25:19;20.70;99.90
2130;DHT22;1071;52.544;13.374;2023-09-19T00:27:52;20.70;99.90
2130;DHT22;1071;52.544;13.374;2023-09-19T00:30:28;20.70;99.90
2130;DHT22;1071;52.544;13.374;2023-09-19T00:32:55;20.70;99.90
2130;DHT22;1071;52.544;13.374;2023-09-19T00:35:22;20.70;99.90
2130;DHT22;1071;52.544;13.374;2023-09-19T00:37:51;20.70;99.90
2130;DHT22;1071;52.544;13.374;2023-09-19T00:40:21;20.70;99.90
2130;DHT22;1071;52.544;13.374;2023-09-19T00:42:49;20.70;99.90
2130;DHT22;1071;52.544;13.374;2023-09-19T00:45:17;20.70;99.90
2130;DHT22;1071;52.544;13.374;2023-09-19T00:47:49;20.60;99.90
2130;DHT22;1071;52.544;13.374;2023-09-19T00:50:24;20.60;99.90
2130;DHT22;1071;52.544;13.374;2023-09-19T00:52:54;20.60;99.90
2130;DHT22;1071;52.544;13.374;2023-09-19T00:55:24;20.50;99.90
2130;DHT22;1071;52.544;13.374;2023-09-19T00:57:53;20.50;99.90
2130;DHT22;1071;52.544;13.374;2023-09-19T01:00:22;20.50;99.90
2130;DHT22;1071;52.544;13.374;2023-09-19T01:02:52;20.40;99.90
2130;DHT22;1071;52.544;13.374;2023-09-19T01:05:19;20.40;99.90
2130;DHT22;1071;52.544;13.374;2023-09-19T01:07:46;20.40;99.90
2130;DHT22;1071;52.544;13.374;2023-09-19T01:10:18;20.40;99.90
2130;DHT22;1071;52.544;13.374;2023-09-19T01:12:54;20.40;99.90
2130;DHT22;1071;52.544;13.374;2023-09-19T01:15:28;20.40;99.90
2130;DHT22;1071;52.544;13.374;2023-09-19T01:18:05;20.40;99.90
2130;DHT22;1071;52.544;13.374;2023-09-19T01:20:41;20.40;99.90
2130;DHT22;1071;52.544;13.374;2023-09-19T01:23:24;20.40;99.90
2130;DHT22;1071;52.544;13.374;2023-09-19T01:26:10;20.40;99.90
2130;DHT22;1071;52.544;13.374;2023-09-19T01:29:01;20.40;99.90
2130;DHT22;1071;52.544;13.374;2023-09-19T01:31:37;20.40;99.90
2130;DHT22;1071;52.544;13.374;2023-09-19T01:34:06;20.40;99.90
2130;DHT22;1071;52.544;13.374;2023-09-19T01:36:36;20.40;99.90
2130;DHT22;1071;52.544;13.374;2023-09-19T01:39:04;20.40;99.90
2130;DHT22;1071;52.544;13.374;2023-09-19T01:41:51;20.40;99.90
2130;DHT22;1071;52.544;13.374;2023-09-19T01:44:25;20.30;99.90
2130;DHT22;1071;52.544;13.374;2023-09-19T01:46:59;20.40;99.90
2130;DHT22;1071;52.544;13.374;2023-09-19T01:49:36;20.40;99.90
2130;DHT22;1071;52.544;13.374;2023-09-19T01:52:11;20.40;99.90
2130;DHT22;1071;52.544;13.374;2023-09-19T01:54:46;20.40;99.90
2130;DHT22;1071;52.544;13.374;2023-09-19T01:57:22;20.40;99.90
2130;DHT22;1071;52.544;13.374;2023-09-19T02:00:01;20.40;99.90
2130;DHT22;1071;52.544;13.374;2023-09-19T02:02:35;20.50;99.90
2130;DHT22;1071;52.544;13.374;2023-09-19T02:05:04;20.40;99.90
2130;DHT22;1071;52.544;13.374;2023-09-19T02:07:31;20.40;99.90
2130;DHT22;1071;52.544;13.374;2023-09-19T02:09:58;20.40;99.90
2130;DHT22;1071;52.544;13.374;2023-09-19T02:12:26;20.40;99.90
2130;DHT22;1071;52.544;13.374;2023-09-19T02:14:53;20.40;99.90
2130;DHT22;1071;52.544;13.374;2023-09-19T02:17:19;20.40;99.90
2130;DHT22;1071;52.544;13.374;2023-09-19T02:19:48;20.40;99.90
2130;DHT22;1071;52.544;13.374;2023-09-19T02:22:15;20.40;99.90
2130;DHT22;1071;52.544;13.374;2023-09-19T02:24:45;20.40;99.90
2130;DHT22;1071;52.544;13.374;2023-09-19T02:27:13;20.40;99.90
2130;DHT22;1071;52.544;13.374;2023-09-19T02:29:43;20.40;99.90
2130;DHT22;1071;52.544;13.374;2023-09-19T02:32:10;20.40;99.90
2130;DHT22;1071;52.544;13.374;2023-09-19T02:34:37;20.40;99.90
2130;DHT22;1071;52.544;13.374;2023-09-19T02:37:06;20.40;99.90
2130;DHT22;1071;52.544;13.374;2023-09-19T02:39:57;20.40;99.90
2130;DHT22;1071;52.544;13.374;2023-09-19T02:42:27;20.40;99.90
2130;DHT22;1071;52.544;13.374;2023-09-19T02:44:55;20.30;99.90
2130;DHT22;1071;52.544;13.374;2023-09-19T02:47:22;20.30;99.90
2130;DHT22;1071;52.544;13.374;2023-09-19T02:49:49;20.30;99.90
2130;DHT22;1071;52.544;13.374;2023-09-19T02:52:18;20.30;99.90
2130;DHT22;1071;52.544;13.374;2023-09-19T02:54:53;20.30;99.90
2130;DHT22;1071;52.544;13.374;2023-09-19T02:57:20;20.30;99.90
2130;DHT22;1071;52.544;13.374;2023-09-19T02:59:47;20.30;99.90
2130;DHT22;1071;52.544;13.374;2023-09-19T03:02:14;20.30;99.90
2130;DHT22;1071;52.544;13.374;2023-09-19T03:04:41;20.30;99.90
2130;DHT22;1071;52.544;13.374;2023-09-19T03:07:08;20.30;99.90
2130;DHT22;1071;52.544;13.374;2023-09-19T03:09:38;20.20;99.90
2130;DHT22;1071;52.544;13.374;2023-09-19T03:12:25;20.20;99.90
2130;DHT22;1071;52.544;13.374;2023-09-19T03:14:52;20.20;99.90
2130;DHT22;1071;52.544;13.374;2023-09-19T03:17:19;20.20;99.90
2130;DHT22;1071;52.544;13.374;2023-09-19T03:19:46;20.20;99.90
2130;DHT22;1071;52.544;13.374;2023-09-19T03:22:14;20.20;99.90
2130;DHT22;1071;52.544;13.374;2023-09-19T03:24:43;20.20;99.90
2130;DHT22;1071;52.544;13.374;2023-09-19T03:27:10;20.20;99.90
2130;DHT22;1071;52.544;13.374;2023-09-19T03:29:38;20.20;99.90
2130;DHT22;1071;52.544;13.374;2023-09-19T03:32:06;20.20;99.90
2130;DHT22;1071;52.544;13.374;2023-09-19T03:34:36;20.20;99.90
2130;DHT22;1071;52.544;13.374;2023-09-19T03:37:03;20.30;99.90
2130;DHT22;1071;52.544;13.374;2023-09-19T03:39:30;20.30;99.90
2130;DHT22;1071;52.544;13.374;2023-09-19T03:41:59;20.30;99.90
2130;DHT22;1071;52.544;13.374;2023-09-19T03:44:26;20.30;99.90
2130;DHT22;1071;52.544;13.374;2023-09-19T03:46:52;20.30;99.90
2130;DHT22;1071;52.544;13.374;2023-09-19T03:49:21;20.20;99.90
2130;DHT22;1071;52.544;13.374;2023-09-19T03:51:48;20.20;99.90
2130;DHT22;1071;52.544;13.374;2023-09-19T03:54:16;20.20;99.90
2130;DHT22;1071;52.544;13.374;2023-09-19T03:56:45;20.20;99.90
2130;DHT22;1071;52.544;13.374;2023-09-19T03:59:13;20.20;99.90
2130;DHT22;1071;52.544;13.374;2023-09-19T04:01:40;20.20;99.90
2130;DHT22;1071;52.544;13.374;2023-09-19T04:04:09;20.20;99.90
2130;DHT22;1071;52.544;13.374;2023-09-19T04:06:38;20.20;99.90
2130;DHT22;1071;52.544;13.374;2023-09-19T04:09:05;20.20;99.90
2130;DHT22;1071;52.544;13.374;2023-09-19T04:11:32;20.20;99.90
2130;DHT22;1071;52.544;13.374;2023-09-19T04:14:02;20.20;99.90
2130;DHT22;1071;52.544;13.374;2023-09-19T04:16:31;20.20;99.90
2130;DHT22;1071;52.544;13.374;2023-09-19T04:18:58;20.20;99.90
2130;DHT22;1071;52.544;13.374;2023-09-19T04:21:25;20.20;99.90
2130;DHT22;1071;52.544;13.374;2023-09-19T04:23:52;20.20;99.90
2130;DHT22;1071;52.544;13.374;2023-09-19T04:26:19;20.20;99.90
2130;DHT22;1071;52.544;13.374;2023-09-19T04:28:47;20.20;99.90
2130;DHT22;1071;52.544;13.374;2023-09-19T04:31:14;20.10;99.90
2130;DHT22;1071;52.544;13.374;2023-09-19T04:33:43;20.10;99.90
2130;DHT22;1071;52.544;13.374;2023-09-19T04:36:10;20.10;99.90
2130;DHT22;1071;52.544;13.374;2023-09-19T04:38:38;20.10;99.90
2130;DHT22;1071;52.544;13.374;2023-09-19T04:41:06;20.10;99.90
2130;DHT22;1071;52.544;13.374;2023-09-19T04:43:37;20.10;99.90
2130;DHT22;1071;52.544;13.374;2023-09-19T04:46:06;20.00;99.90
2130;DHT22;1071;52.544;13.374;2023-09-19T04:48:33;20.10;99.90
2130;DHT22;1071;52.544;13.374;2023-09-19T04:51:02;20.10;99.90
2130;DHT22;1071;52.544;13.374;2023-09-19T04:53:30;20.00;99.90
2130;DHT22;1071;52.544;13.374;2023-09-19T04:55:56;20.00;99.90
2130;DHT22;1071;52.544;13.374;2023-09-19T04:58:23;20.00;99.90
2130;DHT22;1071;52.544;13.374;2023-09-19T05:00:50;20.00;99.90
2130;DHT22;1071;52.544;13.374;2023-09-19T05:03:22;20.00;99.90
2130;DHT22;1071;52.544;13.374;2023-09-19T05:05:49;20.00;99.90
2130;DHT22;1071;52.544;13.374;2023-09-19T05:08:22;19.90;99.90
2130;DHT22;1071;52.544;13.374;2023-09-19T05:10:49;19.90;99.90
2130;DHT22;1071;52.544;13.374;2023-09-19T05:13:16;19.90;99.90
2130;DHT22;1071;52.544;13.374;2023-09-19T05:15:43;19.90;99.90
2130;DHT22;1071;52.544;13.374;2023-09-19T05:18:13;19.90;99.90
2130;DHT22;1071;52.544;13.374;2023-09-19T05:20:39;19.90;99.90
2130;DHT22;1071;52.544;13.374;2023-09-19T05:23:07;19.90;99.90
2130;DHT22;1071;52.544;13.374;2023-09-19T05:25:40;19.80;99.90
2130;DHT22;1071;52.544;13.374;2023-09-19T05:28:09;19.80;99.90
2130;DHT22;1071;52.544;13.374;2023-09-19T05:30:38;19.70;99.90
2130;DHT22;1071;52.544;13.374;2023-09-19T05:33:05;19.70;99.90
2130;DHT22;1071;52.544;13.374;2023-09-19T05:35:32;19.70;99.90
2130;DHT22;1071;52.544;13.374;2023-09-19T05:37:59;19.70;99.90
2130;DHT22;1071;52.544;13.374;2023-09-19T05:40:26;19.70;99.90
2130;DHT22;1071;52.544;13.374;2023-09-19T05:42:55;19.70;99.90
2130;DHT22;1071;52.544;13.374;2023-09-19T05:45:22;19.70;99.90
2130;DHT22;1071;52.544;13.374;2023-09-19T05:47:50;19.70;99.90
2130;DHT22;1071;52.544;13.374;2023-09-19T05:50:21;19.60;99.90
2130;DHT22;1071;52.544;13.374;2023-09-19T05:52:52;19.70;99.90
2130;DHT22;1071;52.544;13.374;2023-09-19T05:55:19;19.60;99.90
2130;DHT22;1071;52.544;13.374;2023-09-19T05:57:49;19.60;99.90
2130;DHT22;1071;52.544;13.374;2023-09-19T06:00:18;19.50;99.90
2130;DHT22;1071;52.544;13.374;2023-09-19T06:02:50;19.50;99.90
2130;DHT22;1071;52.544;13.374;2023-09-19T06:05:17;19.50;99.90
2130;DHT22;1071;52.544;13.374;2023-09-19T06:07:45;19.50;99.90
2130;DHT22;1071;52.544;13.374;2023-09-19T06:10:12;19.60;99.90
2130;DHT22;1071;52.544;13.374;2023-09-19T06:12:40;19.60;99.90
2130;DHT22;1071;52.544;13.374;2023-09-19T06:15:11;19.60;99.90
2130;DHT22;1071;52.544;13.374;2023-09-19T06:17:42;19.60;99.90
2130;DHT22;1071;52.544;13.374;2023-09-19T06:20:09;19.60;99.90
2130;DHT22;1071;52.544;13.374;2023-09-19T06:22:40;19.70;99.90
2130;DHT22;1071;52.544;13.374;2023-09-19T06:25:14;19.70;99.90
2130;DHT22;1071;52.544;13.374;2023-09-19T06:27:45;19.70;99.90
2130;DHT22;1071;52.544;13.374;2023-09-19T06:30:12;19.70;99.90
2130;DHT22;1071;52.544;13.374;2023-09-19T06:32:44;19.60;99.90
2130;DHT22;1071;52.544;13.374;2023-09-19T06:35:12;19.70;99.90
2130;DHT22;1071;52.544;13.374;2023-09-19T06:37:42;19.70;99.90
2130;DHT22;1071;52.544;13.374;2023-09-19T06:40:10;19.70;99.90
2130;DHT22;1071;52.544;13.374;2023-09-19T06:42:40;19.80;99.90
2130;DHT22;1071;52.544;13.374;2023-09-19T06:45:08;19.80;99.90
2130;DHT22;1071;52.544;13.374;2023-09-19T06:47:37;19.90;99.90
2130;DHT22;1071;52.544;13.374;2023-09-19T06:50:06;19.80;99.90
2130;DHT22;1071;52.544;13.374;2023-09-19T06:52:38;19.90;99.90
2130;DHT22;1071;52.544;13.374;2023-09-19T06:55:05;19.90;99.90
2130;DHT22;1071;52.544;13.374;2023-09-19T06:57:32;19.90;99.90
2130;DHT22;1071;52.544;13.374;2023-09-19T06:59:59;19.90;99.90
2130;DHT22;1071;52.544;13.374;2023-09-19T07:02:30;20.00;99.90
2130;DHT22;1071;52.544;13.374;2023-09-19T07:04:57;20.00;99.90
2130;DHT22;1071;52.544;13.374;2023-09-19T07:07:28;20.10;99.90
2130;DHT22;1071;52.544;13.374;2023-09-19T07:09:55;20.20;99.90
2130;DHT22;1071;52.544;13.374;2023-09-19T07:12:22;20.30;99.90
2130;DHT22;1071;52.544;13.374;2023-09-19T07:14:49;20.40;99.90
2130;DHT22;1071;52.544;13.374;2023-09-19T07:17:16;20.50;99.90
2130;DHT22;1071;52.544;13.374;2023-09-19T07:19:46;20.60;99.90
2130;DHT22;1071;52.544;13.374;2023-09-19T07:22:15;20.60;99.90
2130;DHT22;1071;52.544;13.374;2023-09-19T07:24:43;20.60;99.90
2130;DHT22;1071;52.544;13.374;2023-09-19T07:27:10;20.70;99.90
2130;DHT22;1071;52.544;13.374;2023-09-19T07:29:37;20.80;99.90
2130;DHT22;1071;52.544;13.374;2023-09-19T07:32:05;20.90;99.90
2130;DHT22;1071;52.544;13.374;2023-09-19T07:34:35;20.90;99.90
2130;DHT22;1071;52.544;13.374;2023-09-19T07:37:04;20.90;99.90
2130;DHT22;1071;52.544;13.374;2023-09-19T07:39:31;20.90;99.90
2130;DHT22;1071;52.544;13.374;2023-09-19T07:42:00;20.90;99.90
2130;DHT22;1071;52.544;13.374;2023-09-19T07:44:27;21.00;99.90
2130;DHT22;1071;52.544;13.374;2023-09-19T07:46:54;21.00;99.90
2130;DHT22;1071;52.544;13.374;2023-09-19T07:49:23;21.10;99.90
2130;DHT22;1071;52.544;13.374;2023-09-19T07:51:50;21.10;99.90
2130;DHT22;1071;52.544;13.374;2023-09-19T07:54:19;21.10;99.90
2130;DHT22;1071;52.544;13.374;2023-09-19T07:56:46;21.20;99.90
2130;DHT22;1071;52.544;13.374;2023-09-19T07:59:15;21.20;99.90
2130;DHT22;1071;52.544;13.374;2023-09-19T08:01:42;21.20;99.90
2130;DHT22;1071;52.544;13.374;2023-09-19T08:04:09;21.30;99.90
2130;DHT22;1071;52.544;13.374;2023-09-19T08:06:38;21.30;99.90
2130;DHT22;1071;52.544;13.374;2023-09-19T08:09:05;21.40;99.90
2130;DHT22;1071;52.544;13.374;2023-09-19T08:11:36;21.40;99.90
2130;DHT22;1071;52.544;13.374;2023-09-19T08:14:03;21.50;99.90
2130;DHT22;1071;52.544;13.374;2023-09-19T08:16:32;21.50;99.90
2130;DHT22;1071;52.544;13.374;2023-09-19T08:18:59;21.50;99.90
2130;DHT22;1071;52.544;13.374;2023-09-19T08:21:26;21.50;99.90
2130;DHT22;1071;52.544;13.374;2023-09-19T08:23:55;21.50;99.90
2130;DHT22;1071;52.544;13.374;2023-09-19T08:26:22;21.50;99.90
2130;DHT22;1071;52.544;13.374;2023-09-19T08:28:50;21.50;99.90
2130;DHT22;1071;52.544;13.374;2023-09-19T08:31:18;21.50;99.90
2130;DHT22;1071;52.544;13.374;2023-09-19T08:33:47;21.50;99.90
2130;DHT22;1071;52.544;13.374;2023-09-19T08:36:15;21.50;99.90
2130;DHT22;1071;52.544;13.374;2023-09-19T08:38:41;21.50;99.90
2130;DHT22;1071;52.544;13.374;2023-09-19T08:41:11;21.50;99.90
2130;DHT22;1071;52.544;13.374;2023-09-19T08:43:38;21.40;99.90
2130;DHT22;1071;52.544;13.374;2023-09-19T08:46:10;21.40;99.90
2130;DHT22;1071;52.544;13.374;2023-09-19T08:48:44;21.40;99.90
2130;DHT22;1071;52.544;13.374;2023-09-19T08:51:18;21.40;99.90
2130;DHT22;1071;52.544;13.374;2023-09-19T08:53:51;21.40;99.90
2130;DHT22;1071;52.544;13.374;2023-09-19T08:56:34;21.40;99.90
2130;DHT22;1071;52.544;13.374;2023-09-19T08:59:08;21.30;99.90
2130;DHT22;1071;52.544;13.374;2023-09-19T09:01:38;21.30;99.90
2130;DHT22;1071;52.544;13.374;2023-09-19T09:04:09;21.30;99.90
2130;DHT22;1071;52.544;13.374;2023-09-19T09:06:40;21.30;99.90
2130;DHT22;1071;52.544;13.374;2023-09-19T09:09:08;21.30;99.90
2130;DHT22;1071;52.544;13.374;2023-09-19T09:11:38;21.30;99.90
2130;DHT22;1071;52.544;13.374;2023-09-19T09:14:06;21.30;99.90
2130;DHT22;1071;52.544;13.374;2023-09-19T09:16:34;21.30;99.90
2130;DHT22;1071;52.544;13.374;2023-09-19T09:19:05;21.30;99.90
2130;DHT22;1071;52.544;13.374;2023-09-19T09:21:32;21.30;99.90
2130;DHT22;1071;52.544;13.374;2023-09-19T09:24:30;21.30;99.90
2130;DHT22;1071;52.544;13.374;2023-09-19T09:26:59;21.40;99.90
2130;DHT22;1071;52.544;13.374;2023-09-19T09:29:45;21.30;99.90
2130;DHT22;1071;52.544;13.374;2023-09-19T09:32:19;21.40;99.90
2130;DHT22;1071;52.544;13.374;2023-09-19T09:34:48;21.40;99.90
2130;DHT22;1071;52.544;13.374;2023-09-19T09:37:16;21.40;99.90
2130;DHT22;1071;52.544;13.374;2023-09-19T09:39:53;21.50;99.90
2130;DHT22;1071;52.544;13.374;2023-09-19T09:42:32;21.50;99.90
2130;DHT22;1071;52.544;13.374;2023-09-19T09:45:14;21.60;99.90
2130;DHT22;1071;52.544;13.374;2023-09-19T09:47:42;21.60;99.90
2130;DHT22;1071;52.544;13.374;2023-09-19T09:50:27;21.70;99.90
2130;DHT22;1071;52.544;13.374;2023-09-19T09:53:32;21.70;99.90
2130;DHT22;1071;52.544;13.374;2023-09-19T09:56:05;21.70;99.90
2130;DHT22;1071;52.544;13.374;2023-09-19T09:58:33;21.70;99.90
2130;DHT22;1071;52.544;13.374;2023-09-19T10:01:01;21.70;99.90
2130;DHT22;1071;52.544;13.374;2023-09-19T10:03:36;21.70;99.90
2130;DHT22;1071;52.544;13.374;2023-09-19T10:06:07;21.70;99.90
2130;DHT22;1071;52.544;13.374;2023-09-19T10:09:01;21.60;99.90
2130;DHT22;1071;52.544;13.374;2023-09-19T10:11:44;21.60;99.90
2130;DHT22;1071;52.544;13.374;2023-09-19T10:14:13;21.60;99.90
2130;DHT22;1071;52.544;13.374;2023-09-19T10:16:45;21.60;99.90
2130;DHT22;1071;52.544;13.374;2023-09-19T10:19:16;21.70;99.90
2130;DHT22;1071;52.544;13.374;2023-09-19T10:21:52;21.70;99.90
2130;DHT22;1071;52.544;13.374;2023-09-19T10:24:22;21.80;99.90
2130;DHT22;1071;52.544;13.374;2023-09-19T10:26:59;21.80;99.90
2130;DHT22;1071;52.544;13.374;2023-09-19T10:29:28;21.90;99.90
2130;DHT22;1071;52.544;13.374;2023-09-19T10:31:58;21.90;99.90
2130;DHT22;1071;52.544;13.374;2023-09-19T10:34:34;21.90;99.90
2130;DHT22;1071;52.544;13.374;2023-09-19T10:37:13;21.90;99.90
2130;DHT22;1071;52.544;13.374;2023-09-19T10:39:46;21.90;99.90
2130;DHT22;1071;52.544;13.374;2023-09-19T10:42:23;22.00;99.90
2130;DHT22;1071;52.544;13.374;2023-09-19T10:44:55;22.00;99.90
2130;DHT22;1071;52.544;13.374;2023-09-19T10:47:25;22.10;99.90
2130;DHT22;1071;52.544;13.374;2023-09-19T10:49:52;22.10;99.70
2130;DHT22;1071;52.544;13.374;2023-09-19T10:52:22;22.10;99.40
2130;DHT22;1071;52.544;13.374;2023-09-19T10:54:56;22.00;99.00
2130;DHT22;1071;52.544;13.374;2023-09-19T10:57:26;22.00;98.70
2130;DHT22;1071;52.544;13.374;2023-09-19T11:00:07;21.90;98.70
2130;DHT22;1071;52.544;13.374;2023-09-19T11:03:16;21.90;98.60
2130;DHT22;1071;52.544;13.374;2023-09-19T11:06:02;21.90;98.00
2130;DHT22;1071;52.544;13.374;2023-09-19T11:08:57;21.90;97.50
2130;DHT22;1071;52.544;13.374;2023-09-19T11:11:44;21.90;97.50
2130;DHT22;1071;52.544;13.374;2023-09-19T11:14:40;21.90;97.40
2130;DHT22;1071;52.544;13.374;2023-09-19T11:17:32;22.00;97.10
2130;DHT22;1071;52.544;13.374;2023-09-19T11:20:22;22.00;97.50
2130;DHT22;1071;52.544;13.374;2023-09-19T11:23:25;22.10;97.50
2130;DHT22;1071;52.544;13.374;2023-09-19T11:26:39;22.10;96.90
2130;DHT22;1071;52.544;13.374;2023-09-19T11:29:26;22.10;96.50
2130;DHT22;1071;52.544;13.374;2023-09-19T11:31:54;22.10;96.10
2130;DHT22;1071;52.544;13.374;2023-09-19T11:34:46;22.20;96.30
2130;DHT22;1071;52.544;13.374;2023-09-19T11:40:52;22.20;96.50
2130;DHT22;1071;52.544;13.374;2023-09-19T11:43:38;22.30;97.00
2130;DHT22;1071;52.544;13.374;2023-09-19T11:46:08;22.30;96.40
2130;DHT22;1071;52.544;13.374;2023-09-19T11:48:54;22.40;96.00
2130;DHT22;1071;52.544;13.374;2023-09-19T11:51:27;22.40;95.60
2130;DHT22;1071;52.544;13.374;2023-09-19T11:53:55;22.40;95.00
2130;DHT22;1071;52.544;13.374;2023-09-19T11:56:38;22.40;95.20
2130;DHT22;1071;52.544;13.374;2023-09-19T11:59:06;22.30;95.00
2130;DHT22;1071;52.544;13.374;2023-09-19T12:01:35;22.30;95.30
2130;DHT22;1071;52.544;13.374;2023-09-19T12:04:08;22.40;95.20
2130;DHT22;1071;52.544;13.374;2023-09-19T12:06:37;22.40;95.30
2130;DHT22;1071;52.544;13.374;2023-09-19T12:09:12;22.50;95.20
2130;DHT22;1071;52.544;13.374;2023-09-19T12:11:43;22.50;95.20
2130;DHT22;1071;52.544;13.374;2023-09-19T12:14:10;22.50;94.90
2130;DHT22;1071;52.544;13.374;2023-09-19T12:16:40;22.60;94.40
2130;DHT22;1071;52.544;13.374;2023-09-19T12:19:21;22.50;94.50
2130;DHT22;1071;52.544;13.374;2023-09-19T12:21:58;22.50;94.90
2130;DHT22;1071;52.544;13.374;2023-09-19T12:24:30;22.50;93.80
2130;DHT22;1071;52.544;13.374;2023-09-19T12:27:04;22.50;93.80
2130;DHT22;1071;52.544;13.374;2023-09-19T12:29:32;22.50;93.70
2130;DHT22;1071;52.544;13.374;2023-09-19T12:32:09;22.50;93.00
2130;DHT22;1071;52.544;13.374;2023-09-19T12:34:37;22.50;92.60
2130;DHT22;1071;52.544;13.374;2023-09-19T12:37:09;22.50;92.80
2130;DHT22;1071;52.544;13.374;2023-09-19T12:39:42;22.40;92.70
2130;DHT22;1071;52.544;13.374;2023-09-19T12:42:10;22.40;92.70
2130;DHT22;1071;52.544;13.374;2023-09-19T12:44:42;22.40;92.90
2130;DHT22;1071;52.544;13.374;2023-09-19T12:47:13;22.40;93.00
2130;DHT22;1071;52.544;13.374;2023-09-19T12:50:07;22.50;93.30
2130;DHT22;1071;52.544;13.374;2023-09-19T12:52:39;22.60;93.50
2130;DHT22;1071;52.544;13.374;2023-09-19T12:55:07;22.60;93.20
2130;DHT22;1071;52.544;13.374;2023-09-19T12:57:35;22.70;93.10
2130;DHT22;1071;52.544;13.374;2023-09-19T13:00:05;22.70;93.10
2130;DHT22;1071;52.544;13.374;2023-09-19T13:02:34;22.70;93.00
2130;DHT22;1071;52.544;13.374;2023-09-19T13:05:01;22.80;92.80
2130;DHT22;1071;52.544;13.374;2023-09-19T13:07:42;22.80;92.70
2130;DHT22;1071;52.544;13.374;2023-09-19T13:10:15;22.80;92.60
2130;DHT22;1071;52.544;13.374;2023-09-19T13:12:46;22.80;92.20
2130;DHT22;1071;52.544;13.374;2023-09-19T13:15:14;22.90;92.30
2130;DHT22;1071;52.544;13.374;2023-09-19T13:17:47;22.80;92.50
2130;DHT22;1071;52.544;13.374;2023-09-19T13:20:22;22.80;92.70
2130;DHT22;1071;52.544;13.374;2023-09-19T13:22:58;22.80;92.60
2130;DHT22;1071;52.544;13.374;2023-09-19T13:25:35;22.80;92.70
2130;DHT22;1071;52.544;13.374;2023-09-19T13:28:38;22.70;92.20
2130;DHT22;1071;52.544;13.374;2023-09-19T13:30:55;22.80;92.60
2130;DHT22;1071;52.544;13.374;2023-09-19T13:33:24;22.70;91.80
2130;DHT22;1071;52.544;13.374;2023-09-19T13:35:52;22.80;92.10
2130;DHT22;1071;52.544;13.374;2023-09-19T13:38:19;22.80;91.80
2130;DHT22;1071;52.544;13.374;2023-09-19T13:40:54;22.80;91.80
2130;DHT22;1071;52.544;13.374;2023-09-19T13:43:21;22.70;92.20
2130;DHT22;1071;52.544;13.374;2023-09-19T13:45:56;22.70;92.20
2130;DHT22;1071;52.544;13.374;2023-09-19T13:48:25;22.70;92.10
2130;DHT22;1071;52.544;13.374;2023-09-19T13:50:52;22.70;91.90
2130;DHT22;1071;52.544;13.374;2023-09-19T13:53:19;22.70;92.00
2130;DHT22;1071;52.544;13.374;2023-09-19T13:55:46;22.70;92.10
2130;DHT22;1071;52.544;13.374;2023-09-19T13:58:14;22.70;91.80
2130;DHT22;1071;52.544;13.374;2023-09-19T14:00:43;22.60;91.80
2130;DHT22;1071;52.544;13.374;2023-09-19T14:03:14;22.60;91.90
2130;DHT22;1071;52.544;13.374;2023-09-19T14:05:50;22.60;91.90
2130;DHT22;1071;52.544;13.374;2023-09-19T14:08:20;22.60;91.60
2130;DHT22;1071;52.544;13.374;2023-09-19T14:10:47;22.60;91.30
2130;DHT22;1071;52.544;13.374;2023-09-19T14:13:14;22.60;91.60
2130;DHT22;1071;52.544;13.374;2023-09-19T14:15:43;22.70;91.70
2130;DHT22;1071;52.544;13.374;2023-09-19T14:18:11;22.70;91.90
2130;DHT22;1071;52.544;13.374;2023-09-19T14:20:46;22.70;92.00
2130;DHT22;1071;52.544;13.374;2023-09-19T14:23:13;22.60;92.20
2130;DHT22;1071;52.544;13.374;2023-09-19T14:25:40;22.60;92.30
2130;DHT22;1071;52.544;13.374;2023-09-19T14:28:07;22.60;92.40
2130;DHT22;1071;52.544;13.374;2023-09-19T14:30:35;22.60;92.40
2130;DHT22;1071;52.544;13.374;2023-09-19T14:33:03;22.60;92.20
2130;DHT22;1071;52.544;13.374;2023-09-19T14:35:33;22.60;92.20
2130;DHT22;1071;52.544;13.374;2023-09-19T14:38:01;22.60;92.20
2130;DHT22;1071;52.544;13.374;2023-09-19T14:40:28;22.60;92.30
2130;DHT22;1071;52.544;13.374;2023-09-19T14:42:55;22.60;92.40
2130;DHT22;1071;52.544;13.374;2023-09-19T14:45:26;22.60;92.30
2130;DHT22;1071;52.544;13.374;2023-09-19T14:47:53;22.60;91.90
2130;DHT22;1071;52.544;13.374;2023-09-19T14:50:21;22.60;92.10
2130;DHT22;1071;52.544;13.374;2023-09-19T14:52:49;22.60;92.30
2130;DHT22;1071;52.544;13.374;2023-09-19T14:55:20;22.60;92.50
2130;DHT22;1071;52.544;13.374;2023-09-19T14:57:49;22.60;92.80
2130;DHT22;1071;52.544;13.374;2023-09-19T15:00:22;22.50;92.90
2130;DHT22;1071;52.544;13.374;2023-09-19T15:02:52;22.50;93.10
2130;DHT22;1071;52.544;13.374;2023-09-19T15:05:20;22.50;93.20
2130;DHT22;1071;52.544;13.374;2023-09-19T15:07:48;22.50;93.30
2130;DHT22;1071;52.544;13.374;2023-09-19T15:10:15;22.50;93.30
2130;DHT22;1071;52.544;13.374;2023-09-19T15:12:48;22.40;92.90
2130;DHT22;1071;52.544;13.374;2023-09-19T15:15:21;22.40;92.70
2130;DHT22;1071;52.544;13.374;2023-09-19T15:17:56;22.30;92.70
2130;DHT22;1071;52.544;13.374;2023-09-19T15:20:23;22.30;92.60
2130;DHT22;1071;52.544;13.374;2023-09-19T15:22:51;22.30;92.80
2130;DHT22;1071;52.544;13.374;2023-09-19T15:25:18;22.30;92.40
2130;DHT22;1071;52.544;13.374;2023-09-19T15:27:47;22.20;92.50
2130;DHT22;1071;52.544;13.374;2023-09-19T15:30:15;22.20;92.70
2130;DHT22;1071;52.544;13.374;2023-09-19T15:32:42;22.30;93.00
2130;DHT22;1071;52.544;13.374;2023-09-19T15:35:13;22.30;93.10
2130;DHT22;1071;52.544;13.374;2023-09-19T15:37:42;22.30;93.30
2130;DHT22;1071;52.544;13.374;2023-09-19T15:40:10;22.30;93.20
2130;DHT22;1071;52.544;13.374;2023-09-19T15:42:38;22.30;93.10
2130;DHT22;1071;52.544;13.374;2023-09-19T15:45:07;22.30;93.00
2130;DHT22;1071;52.544;13.374;2023-09-19T15:47:35;22.30;92.90
2130;DHT22;1071;52.544;13.374;2023-09-19T15:50:03;22.30;92.90
2130;DHT22;1071;52.544;13.374;2023-09-19T15:52:30;22.30;92.90
2130;DHT22;1071;52.544;13.374;2023-09-19T15:54:57;22.30;92.90
2130;DHT22;1071;52.544;13.374;2023-09-19T15:57:27;22.30;93.00
2130;DHT22;1071;52.544;13.374;2023-09-19T15:59:54;22.30;92.80
2130;DHT22;1071;52.544;13.374;2023-09-19T16:02:22;22.20;92.80
2130;DHT22;1071;52.544;13.374;2023-09-19T16:04:52;22.20;92.80
2130;DHT22;1071;52.544;13.374;2023-09-19T16:07:21;22.10;92.40
2130;DHT22;1071;52.544;13.374;2023-09-19T16:09:49;22.10;92.20
2130;DHT22;1071;52.544;13.374;2023-09-19T16:12:33;22.10;92.20